Accueil
METAR-TAF:

METAR-TAF

Aéroports :

Base aérienne de Coxyde

Coxyde, Belgique

latitude: 51-05N, longitude: 002-39E, altitude: 4 m

Observation

Le bulletin a été fait il y a 44 minutes, à 03:55 UTC
Vent 4 kt de est/nord-est
Température 5°C
Humidité 81%
Pression 1030 hPa
Visibilité 10 km ou plus

METAR: EBFN 240355Z AUTO 06004KT 9999 BKN048/// 05/02 Q1030 BLU

Heure: 05:39 (04:39 UTC)

Prévision

Le bulletin a été fait il y a 12 heures et 58 minutes, à 15:41 UTC
Prévision valable du 23 à 19 UTC au 24 à 07 UTC
Vent 12 kt de nord-est
Visibilité 10 km ou plus
Quelques nuages à une hauteur de 2000 ft
Nuages fragmentés à une hauteur de 3500 ft
Temporairement
du 24 à 03 UTC au 24 à 07 UTC
Visibilité: 6000 m

TAF: EBFN 231541Z 2319/2407 04012KT 9999 FEW020 BKN035 TEMPO 2403/2407 6000

Observations et prévisions météorologiques de plus de 4000 aéroports (messages METAR et TAF).

Les stations disponibles sont représentées par des disques jaunes et rouges sur la carte.

Passer la souris dessus pour voir le nom de la station.

Cliquer dessus pour voir les observations et prévisions météorologiques.

Pour changer de carte: cliquez sur les boutons verts avec une croix noire pour zoomer, sur le bouton vert avec un tiret pour effectuer un zoom arrière, ou sur les flèches vertes pour les cartes adjacentes.


METAR-TAF: